createdAt,value
2018-12-31T00:08:31.704Z,34.69
2018-12-31T00:28:41.314Z,28.78
2018-12-31T00:48:53.161Z,33.99
2018-12-31T01:08:52.761Z,33.73
2018-12-31T01:29:02.711Z,25.60
2018-12-31T01:49:14.529Z,27.48
2018-12-31T02:09:14.076Z,25.14
2018-12-31T02:29:23.584Z,25.14
2018-12-31T02:49:37.649Z,23.28
2018-12-31T03:09:37.183Z,25.23
2018-12-31T03:29:46.864Z,20.25
2018-12-31T03:49:56.371Z,17.26
2018-12-31T04:10:05.855Z,13.85
2018-12-31T04:30:15.648Z,12.38
2018-12-31T04:50:25.164Z,10.09
2018-12-31T05:10:34.693Z,9.06
2018-12-31T05:30:44.188Z,7.93
2018-12-31T05:50:53.712Z,12.90
2018-12-31T06:11:05.518Z,11.33
2018-12-31T06:31:05.044Z,12.98
2018-12-31T06:51:16.857Z,15.14
2018-12-31T07:11:16.396Z,12.86
2018-12-31T07:31:25.863Z,16.69
2018-12-31T07:51:35.419Z,17.37
2018-12-31T08:11:45.446Z,37.81
2018-12-31T08:31:44.990Z,16.88
2018-12-31T08:51:54.600Z,17.19
2018-12-31T09:12:03.946Z,12.16
2018-12-31T09:32:13.426Z,15.87
2018-12-31T09:52:25.258Z,13.41
2018-12-31T10:12:25.847Z,8.79
2018-12-31T10:32:25.467Z,4.30
2018-12-31T10:52:35.011Z,4.09
2018-12-31T11:12:44.645Z,3.40
2018-12-31T11:32:54.149Z,3.26
2018-12-31T11:53:03.755Z,2.14
2018-12-31T12:13:13.256Z,2.37
2018-12-31T12:33:22.841Z,2.24
2018-12-31T12:53:32.437Z,2.36
2018-12-31T13:13:42.104Z,2.79
2018-12-31T13:33:52.624Z,2.76
2018-12-31T13:53:53.981Z,3.16
2018-12-31T14:13:53.488Z,3.84
2018-12-31T14:34:03.067Z,3.34
2018-12-31T14:54:16.609Z,3.29
2018-12-31T15:14:16.477Z,4.75
2018-12-31T15:34:26.037Z,4.13
2018-12-31T15:54:41.661Z,5.33
2018-12-31T16:14:43.479Z,6.04
2018-12-31T16:34:43.110Z,6.62
2018-12-31T16:54:57.635Z,6.12
2018-12-31T17:14:57.177Z,3.83
2018-12-31T17:35:06.715Z,4.35
2018-12-31T17:55:16.356Z,4.89
2018-12-31T18:15:25.932Z,3.26
2018-12-31T18:35:37.706Z,4.04
2018-12-31T18:55:39.543Z,5.69
2018-12-31T19:15:37.672Z,6.76
2018-12-31T19:35:47.194Z,4.77
2018-12-31T19:55:56.643Z,5.51
2018-12-31T20:16:06.133Z,4.73
2018-12-31T20:36:15.789Z,8.33
2018-12-31T20:56:27.436Z,3.88
2018-12-31T21:16:26.962Z,4.71
2018-12-31T21:36:36.399Z,10.52
2018-12-31T21:56:48.319Z,19.04
2018-12-31T22:16:47.772Z,20.46
2018-12-31T22:36:59.930Z,17.11
2018-12-31T22:56:59.372Z,23.78
2018-12-31T23:17:08.893Z,48.12
2018-12-31T23:37:18.485Z,26.52
2018-12-31T23:57:27.816Z,14.15
